Stations météo

Publicité
Embrun, France (7591): Température de l'air & dewpoint: 06.12.2018 19:00:00 - 12.12.2018 19:00:00 (CET)Embrun, France (7591): Température de l'air 5cm: 06.12.2018 19:00:00 - 12.12.2018 19:00:00 (CET)Embrun, France (7591): Température de l'air -20cm & Température de l'air -100cm: 06.12.2018 19:00:00 - 12.12.2018 19:00:00 (CET)Embrun, France (7591): Vitesse du vent & gusts: 06.12.2018 19:00:00 - 12.12.2018 19:00:00 (CET)Embrun, France (7591): Direction du vent: 06.12.2018 19:00:00 - 12.12.2018 19:00:00 (CET)Embrun, France (7591): visibility: 06.12.2018 19:00:00 - 12.12.2018 19:00:00 (CET)Embrun, France (7591): Ensoleillement: 06.12.2018 19:00:00 - 12.12.2018 19:00:00 (CET)Embrun, France (7591): Quantités de précipitations: 06.12.2018 19:00:00 - 12.12.2018 19:00:00 (CET)
Date & Time tt [°C] td [°C] tt 5cm [°C] tt -20cm [°C] tt -100cm [°C] ff [km/h] ff [knt] fx [km/h] fx [knt] dd vv [km] sd [min] rr [mm]
12.12.2018 19:00:00 1,9 -3,2 0,7 4,9 9,2 4 2 8 4 NE 20 0 0,0
12.12.2018 18:00:00 2,6 -2,7 1,2 4,9 9,2 3 2 9 5 SW 20 0 0,0
12.12.2018 17:00:00 3,6 -3,9 2,4 4,9 9,2 4 2 10 5 SSW 20 27 0,0
12.12.2018 16:00:00 4,8 -4,0 5,3 4,9 9,2 6 4 15 8 SSW 20 60 0,0
12.12.2018 15:00:00 5,3 -4,6 8,4 5,0 9,2 8 5 14 8 SW 20 60 0,0
12.12.2018 14:00:00 4,5 -6,7 8,7 5,0 9,2 4 2 16 9 NE 20 48 0,0
12.12.2018 13:00:00 3,7 -6,9 9,4 5,1 9,2 5 3 14 7 E 20 53 0,0
12.12.2018 12:00:00 3,6 -6,7 6,0 5,1 9,3 3 2 12 7 ESE 20 60 0,0
12.12.2018 11:00:00 1,8 -7,8 4,6 5,1 9,3 7 4 27 14 E 19 60 0,0
12.12.2018 10:00:00 -0,2 -7,5 -1,8 5,2 9,3 13 7 28 15 NE 17 46 0,0
12.12.2018 09:00:00 -2,0 -8,5 -3,8 5,2 9,3 14 7 30 16 NNE 20 0 0,0
12.12.2018 08:00:00 -2,7 -8,6 -4,1 5,3 9,3 12 7 35 19 NNE 20 0 0,0
12.12.2018 07:00:00 -1,8 -8,6 -4,4 5,3 9,3 19 10 30 16 N 20 0 0,0
12.12.2018 06:00:00 -1,7 -8,5 -3,7 5,4 9,3 16 9 32 17 NNE 20 0 0,0
12.12.2018 05:00:00 -1,9 -8,2 -4,2 5,4 9,3 16 9 31 17 NNE 20 0 0,0
12.12.2018 04:00:00 -2,4 -7,9 -4,5 5,4 9,3 16 8 27 15 NNE 20 0 0,0
12.12.2018 03:00:00 -2,6 -7,5 -5,2 5,5 9,3 13 7 18 10 NE 20 0 0,0
12.12.2018 02:00:00 -2,9 -7,1 -4,7 5,5 9,3 6 3 23 12 NE 20 0 0,0
12.12.2018 01:00:00 -2,9 -6,5 -5,5 5,5 9,3 11 6 18 10 NE 20 0 0,0
12.12.2018 00:00:00 -2,3 -5,3 -5,3 5,6 9,4 2 1 13 7 N 20 0 0,0
11.12.2018 23:00:00 -2,1 -5,8 -4,1 5,6 9,3 7 4 16 8 NNE 20 0 0,0
11.12.2018 22:00:00 -1,7 -5,2 -4,8 5,6 9,3 8 4 11 6 NE 20 0 0,0
11.12.2018 21:00:00 -1,4 -4,4 -4,3 5,6 9,3 0 0 9 5 N 19 0 0,0
11.12.2018 20:00:00 -0,6 -4,1 -3,8 5,6 9,4 5 3 8 4 N 20 0 0,0
11.12.2018 19:00:00 -0,1 -4,2 -3,4 5,6 9,4 0 0 6 3 N 20 0 0,0
11.12.2018 18:00:00 1,2 -4,7 -1,9 5,7 9,3 3 1 6 3 NNW 20 0 0,0
11.12.2018 17:00:00 2,8 -5,1 0,4 5,7 9,4 0 0 8 5 N 20 27 0,0
11.12.2018 16:00:00 6,2 -4,0 5,4 5,7 9,3 4 2 13 7 S 17 60 0,0
11.12.2018 15:00:00 7,1 -3,2 12,5 5,8 9,4 6 3 14 8 S 20 60 0,0
11.12.2018 14:00:00 6,8 -4,6 13,5 5,8 9,4 6 3 14 7 S 20 60 0,0
11.12.2018 13:00:00 5,4 -3,4 11,7 5,9 9,4 5 3 16 9 SSW 20 60 0,0
11.12.2018 12:00:00 4,4 -5,9 12,7 5,9 9,4 4 2 10 5 S 20 60 0,0
11.12.2018 11:00:00 1,8 -5,2 9,3 6,0 9,4 3 2 11 6 ESE 20 60 0,0
11.12.2018 10:00:00 -0,4 -4,8 -4,8 6,1 9,4 7 4 14 7 NE 20 46 0,0
11.12.2018 09:00:00 -3,5 -6,0 -6,2 6,1 9,4 7 4 11 6 NNE 19 0 0,0
11.12.2018 08:00:00 -3,6 -5,8 -6,2 6,2 9,4 0 0 11 6 N 20 0 0,0
11.12.2018 07:00:00 -3,3 -5,5 -5,9 6,2 9,4 8 4 11 6 NNE 20 0 0,0
11.12.2018 06:00:00 -3,0 -5,5 -5,5 6,2 9,4 5 3 12 6 ESE 20 0 0,0
11.12.2018 05:00:00 -2,6 -5,3 -5,3 6,3 9,4 3 1 12 6 N 20 0 0,0
11.12.2018 04:00:00 -2,3 -5,1 -5,4 6,4 9,4 5 3 12 7 N 20 0 0,0
11.12.2018 03:00:00 -1,9 -4,9 -5,1 6,4 9,4 6 3 11 6 N 20 0 0,0
11.12.2018 02:00:00 -1,6 -4,8 -4,7 6,5 9,4 3 1 11 6 N 20 0 0,0
11.12.2018 01:00:00 -0,5 -4,7 -3,9 6,5 9,4 6 4 11 6 N 20 0 0,0
11.12.2018 00:00:00 -0,3 -4,6 -4,1 6,5 9,4 6 4 10 6 N 20 0 0,0
10.12.2018 23:00:00 0,3 -4,5 -3,5 6,5 9,4 5 3 10 5 N 20 0 0,0
10.12.2018 22:00:00 -0,5 -3,5 -3,6 6,5 9,4 5 3 10 6 NNW 20 0 0,0
10.12.2018 21:00:00 -0,2 -3,2 -3,0 6,5 9,4 3 2 8 5 NW 20 0 0,0
10.12.2018 20:00:00 0,7 -3,4 -2,4 6,5 9,4 5 3 9 5 N 20 0 0,0
10.12.2018 19:00:00 1,2 -2,7 -2,0 6,5 9,4 0 0 6 4 N 20 0 0,0
10.12.2018 18:00:00 2,5 -2,6 -1,3 6,4 9,4 2 1 9 5 N 20 0 0,0
10.12.2018 17:00:00 4,6 -2,3 2,0 6,4 9,4 4 2 13 7 WSW 20 27 0,0
10.12.2018 16:00:00 7,1 -1,1 7,0 6,3 9,4 11 6 16 9 SSW 20 60 0,0
10.12.2018 15:00:00 9,0 -0,9 14,4 6,3 9,4 5 3 14 8 S 20 60 0,0
10.12.2018 14:00:00 8,5 -1,1 15,2 6,3 9,4 6 3 15 8 S 20 60 0,0
10.12.2018 13:00:00 8,6 0,3 15,1 6,3 9,5 6 3 15 8 SSW 20 60 0,0
10.12.2018 12:00:00 6,8 0,7 6,5 6,3 9,4 6 4 13 7 SW 20 29 0,0
10.12.2018 11:00:00 6,7 1,2 10,9 6,3 9,5 3 2 9 5 S 20 60 0,0
10.12.2018 10:00:00 3,9 1,8 1,0 6,3 9,5 3 2 6 3 ENE 20 9 0,0
10.12.2018 09:00:00 2,3 0,8 0,4 6,3 9,5 0 0 8 4 N 20 0 0,0
10.12.2018 08:00:00 2,9 0,8 0,4 6,3 9,5 4 2 9 5 N 20 0 0,0
10.12.2018 07:00:00 3,8 1,5 2,7 6,3 9,5 5 3 10 6 NNW 20 0 0,0
10.12.2018 06:00:00 4,3 0,8 3,0 6,3 9,5 6 4 22 12 WSW 20 0 0,0
10.12.2018 05:00:00 4,3 1,2 3,1 6,4 9,5 3 1 20 11 SW 20 0 0,0
10.12.2018 04:00:00 4,3 1,0 2,7 6,3 9,5 9 5 24 13 SW 20 0 0,0
10.12.2018 03:00:00 4,3 1,8 3,2 6,3 9,5 12 7 29 16 SW 20 0 0,0
10.12.2018 02:00:00 4,1 2,0 3,0 6,3 9,5 10 5 33 18 S 20 0 0,0
10.12.2018 01:00:00 4,5 1,5 3,4 6,3 9,5 13 7 27 15 SSW 20 0 0,0
10.12.2018 00:00:00 4,6 1,8 3,0 6,3 9,5 6 3 19 10 SW 20 0 0,0
09.12.2018 23:00:00 4,3 1,7 2,9 6,3 9,5 5 3 17 9 S 19 0 0,4
09.12.2018 22:00:00 4,4 1,4 3,0 6,3 9,5 8 4 34 18 S 14 0 0,4
09.12.2018 21:00:00 4,7 1,2 3,0 6,3 9,5 14 7 40 22 WSW 17 0 0,0
09.12.2018 20:00:00 4,9 0,7 3,3 6,2 9,5 23 12 52 28 SW 14 0 0,2
09.12.2018 19:00:00 5,6 -0,1 4,8 6,2 9,5 21 11 55 30 WSW 20 0 0,0
09.12.2018 18:00:00 6,5 -1,7 5,6 6,2 9,5 21 11 53 28 SW 20 0 0,0
09.12.2018 17:00:00 6,2 -1,0 5,6 6,1 9,5 22 12 67 36 WSW 20 4 0,0
09.12.2018 16:00:00 6,7 -0,3 6,6 6,1 9,5 33 18 75 40 SW 20 33 0,0
09.12.2018 15:00:00 7,9 -0,6 6,8 6,1 9,5 32 17 69 38 SW 20 21 0,0
09.12.2018 14:00:00 7,1 -0,4 7,2 6,1 9,5 31 17 71 38 SW 20 0 0,0
09.12.2018 13:00:00 8,4 -0,6 5,9 6,1 9,5 29 16 58 31 SW 20 9 0,0
09.12.2018 12:00:00 8,1 1,0 7,2 6,1 9,5 25 13 63 34 SW 20 27 0,0
09.12.2018 11:00:00 9,3 1,0 5,4 6,1 9,5 26 14 65 35 SW 20 57 0,0
09.12.2018 10:00:00 6,7 3,1 4,0 6,2 9,5 27 15 50 27 SW 20 0 0,2
09.12.2018 09:00:00 4,5 3,3 3,5 6,2 9,6 15 8 24 13 SSW 11 0 0,6
09.12.2018 08:00:00 4,8 2,2 3,3 6,2 9,5 10 5 21 11 SSW 20 0 0,0
09.12.2018 07:00:00 3,8 1,5 1,6 6,3 9,6 10 5 29 15 SW 20 0 0,0
09.12.2018 06:00:00 2,4 0,6 -1,5 6,3 9,6 19 10 28 15 SSW 20 0 0,0
09.12.2018 05:00:00 0,0 -2,4 -2,2 6,4 9,6 5 3 9 5 SW 20 0 0,0
09.12.2018 04:00:00 0,2 -2,8 -1,9 6,4 9,5 6 3 9 5 WSW 20 0 0,0
09.12.2018 03:00:00 0,5 -2,9 -1,5 6,4 9,6 5 3 10 5 NNE 20 0 0,0
09.12.2018 02:00:00 1,2 -2,4 0,8 6,4 9,5 4 2 16 8 S 20 0 0,0
09.12.2018 01:00:00 1,2 -3,1 0,6 6,5 9,6 7 4 14 8 NNE 20 0 0,0
09.12.2018 00:00:00 0,9 -2,9 0,1 6,5 9,6 7 4 14 8 NE 20 0 0,0
08.12.2018 23:00:00 0,2 -3,0 -1,3 6,5 9,6 4 2 12 6 NW 20 0 0,0
08.12.2018 22:00:00 0,8 -3,5 -1,7 6,5 9,6 5 3 17 9 WNW 19 0 0,0
08.12.2018 21:00:00 0,6 -3,3 -2,4 6,5 9,6 8 5 13 7 N 20 0 0,0
08.12.2018 20:00:00 1,3 -3,2 -0,9 6,5 9,6 2 1 21 11 S 20 0 0,0
08.12.2018 19:00:00 2,1 -3,0 -0,9 6,5 9,6 9 5 17 9 NNE 20 0 0,0
08.12.2018 18:00:00 2,6 -2,5 -0,6 6,5 9,6 2 1 8 5 N 20 0 0,0
08.12.2018 17:00:00 4,9 -2,7 1,6 6,4 9,6 4 2 9 5 NE 20 25 0,0
08.12.2018 16:00:00 7,6 -3,9 7,2 6,4 9,6 6 3 13 7 SW 20 51 0,0
08.12.2018 15:00:00 10,0 -3,0 16,8 6,4 9,6 2 1 10 5 S 20 60 0,0
08.12.2018 14:00:00 9,4 -3,9 16,5 6,5 9,6 4 2 11 6 SW 20 60 0,0
08.12.2018 13:00:00 8,6 -3,0 15,4 6,5 9,6 4 2 11 6 SSE 20 60 0,0
08.12.2018 12:00:00 6,3 -3,9 15,6 6,5 9,6 4 2 9 5 NE 20 60 0,0
08.12.2018 11:00:00 4,0 -2,2 8,5 6,6 9,6 5 3 11 6 ENE 20 60 0,0
08.12.2018 10:00:00 1,8 -1,6 -2,2 6,6 9,6 5 3 15 8 ENE 20 48 0,0
08.12.2018 09:00:00 -0,2 -2,6 -3,2 6,6 9,6 4 2 14 8 N 20 0 0,0
08.12.2018 08:00:00 -0,5 -2,2 -3,0 6,7 9,6 5 3 11 6 N 20 0 0,0
08.12.2018 07:00:00 0,2 -2,2 -2,4 6,7 9,6 7 4 11 6 NNE 20 0 0,0
08.12.2018 06:00:00 0,1 -1,7 -2,6 6,7 9,6 4 2 9 5 NNW 20 0 0,0
08.12.2018 05:00:00 1,3 -1,4 -1,5 6,7 9,6 9 5 13 7 N 20 0 0,0
08.12.2018 04:00:00 1,6 -1,0 -1,0 6,7 9,6 7 4 13 7 N 20 0 0,0
08.12.2018 03:00:00 2,1 -0,3 -0,4 6,7 9,6 2 1 9 5 S 20 0 0,0
08.12.2018 02:00:00 3,8 -0,4 0,9 6,7 9,6 4 2 28 15 ENE 20 0 0,0
08.12.2018 01:00:00 5,3 0,7 3,4 6,7 9,7 10 5 53 29 S 20 0 0,4
08.12.2018 00:00:00 6,8 4,5 5,5 6,7 9,7 26 14 45 24 SW 7 0 2,4
07.12.2018 23:00:00 6,4 5,8 5,8 6,6 9,6 16 9 22 12 SSW 16 0 0,4
07.12.2018 22:00:00 6,7 5,6 5,6 6,6 9,6 10 6 27 15 SSW 20 0 0,4
07.12.2018 21:00:00 7,5 5,3 6,3 6,6 9,7 18 10 32 17 SSW 11 0 0,2
07.12.2018 20:00:00 8,0 3,3 6,8 6,6 9,6 13 7 29 15 S 20 0 0,0
07.12.2018 19:00:00 8,8 3,0 4,2 6,5 9,6 15 8 34 18 S 20 0 0,0
07.12.2018 18:00:00 7,1 2,6 4,7 6,5 9,7 5 3 20 11 WSW 20 0 0,0
07.12.2018 17:00:00 8,7 0,9 6,2 6,5 9,7 5 3 15 8 WSW 20 30 0,0
07.12.2018 16:00:00 12,0 1,3 11,2 6,4 9,7 8 4 22 12 SW 20 60 0,0
07.12.2018 15:00:00 13,2 1,5 17,3 6,4 9,6 10 5 20 11 S 19 60 0,0
07.12.2018 14:00:00 11,9 1,2 16,4 6,4 9,7 11 6 18 10 SSW 20 60 0,0
07.12.2018 13:00:00 10,4 0,1 16,9 6,4 9,7 9 5 15 8 SW 20 60 0,0
07.12.2018 12:00:00 10,1 0,1 17,7 6,5 9,7 6 3 13 7 SSW 20 60 0,0
07.12.2018 11:00:00 7,7 -0,3 11,6 6,5 9,7 8 5 14 8 E 20 60 0,0
07.12.2018 10:00:00 4,6 -0,6 1,0 6,6 9,7 10 6 19 10 ENE 20 49 0,0
07.12.2018 09:00:00 1,9 -1,5 -0,1 6,6 9,7 5 3 19 10 ESE 20 0 0,0
07.12.2018 08:00:00 1,6 -1,5 -1,3 6,6 9,7 10 6 22 12 NE 20 0 0,0
07.12.2018 07:00:00 1,1 -1,3 -1,8 6,7 9,7 7 4 9 5 NE 20 0 0,0
07.12.2018 06:00:00 1,3 -1,1 -1,5 6,7 9,7 0 0 7 4 N 20 0 0,0
07.12.2018 05:00:00 1,8 -0,9 -0,7 6,7 9,7 5 3 10 5 SW 20 0 0,0
07.12.2018 04:00:00 2,1 -1,0 -0,1 6,7 9,7 4 2 18 10 W 20 0 0,0
07.12.2018 03:00:00 2,5 -0,6 -0,8 6,8 9,7 11 6 15 8 NE 20 0 0,0
07.12.2018 02:00:00 2,0 -0,4 -0,2 6,8 9,7 4 2 9 5 WNW 20 0 0,0
07.12.2018 01:00:00 2,3 -0,3 0,5 6,8 9,7 4 2 22 12 SSE 20 0 0,0
07.12.2018 00:00:00 3,6 0,1 0,0 6,8 9,7 13 7 19 10 NE 20 0 0,0
06.12.2018 23:00:00 3,2 0,6 0,9 6,8 9,7 2 1 26 14 W 20 0 0,0
06.12.2018 22:00:00 3,9 0,8 2,1 6,8 9,7 15 8 26 14 NNE 20 0 0,0
06.12.2018 21:00:00 3,8 1,2 0,5 6,8 9,7 11 6 18 10 NE 20 0 0,0
06.12.2018 20:00:00 4,1 1,6 0,6 6,7 9,7 0 0 9 5 N 17 0 0,0
06.12.2018 19:00:00 4,7 1,9 1,7 6,7 9,7 0 0 16 8 N 20 0 0,0

tt = Température de l'air
td = dewpoint
tt 5cm = Température de l'air 5cm
tt -20cm = Température de l'air -20cm
tt -100cm = Température de l'air -100cm
ff = Vitesse du vent
fx = gusts
dd = Direction du vent
vv = visibility
sd = Ensoleillement
rr = Quantités de précipitations

stations d'obs. à proximité